createdAt,value
2023-01-11T00:00:14.596Z,5.77
2023-01-11T00:02:41.406Z,5.80
2023-01-11T00:05:09.575Z,5.90
2023-01-11T00:07:36.355Z,5.13
2023-01-11T00:10:05.000Z,5.00
2023-01-11T00:12:32.398Z,4.97
2023-01-11T00:14:59.443Z,5.85
2023-01-11T00:18:30.312Z,5.07
2023-01-11T00:20:59.685Z,4.95
2023-01-11T00:23:47.161Z,5.40
2023-01-11T00:26:23.911Z,4.37
2023-01-11T00:28:51.232Z,4.50
2023-01-11T00:31:18.333Z,4.18
2023-01-11T00:33:45.064Z,4.05
2023-01-11T00:36:12.048Z,4.57
2023-01-11T00:38:46.698Z,3.77
2023-01-11T00:41:34.279Z,3.70
2023-01-11T00:44:19.436Z,4.07
2023-01-11T00:47:04.989Z,3.58
2023-01-11T00:49:36.556Z,3.97
2023-01-11T00:52:08.750Z,3.50
2023-01-11T00:54:41.055Z,3.70
2023-01-11T00:57:08.792Z,3.50
2023-01-11T00:59:47.825Z,3.78
2023-01-11T01:02:14.726Z,3.90
2023-01-11T01:04:41.562Z,3.50
2023-01-11T01:07:08.709Z,3.40
2023-01-11T01:09:35.480Z,3.70
2023-01-11T01:12:02.429Z,3.80
2023-01-11T01:14:29.990Z,3.78
2023-01-11T01:17:00.113Z,3.70
2023-01-11T01:19:27.880Z,4.10
2023-01-11T01:21:59.441Z,3.53
2023-01-11T01:24:28.872Z,3.25
2023-01-11T01:26:57.214Z,3.70
2023-01-11T01:29:24.650Z,3.40
2023-01-11T01:31:51.641Z,3.85
2023-01-11T01:34:18.544Z,3.72
2023-01-11T01:36:45.357Z,3.40
2023-01-11T01:39:14.136Z,3.50
2023-01-11T01:41:44.259Z,3.60
2023-01-11T01:44:48.784Z,3.40
2023-01-11T01:47:16.438Z,3.40
2023-01-11T01:49:45.031Z,3.55
2023-01-11T01:52:12.898Z,3.80
2023-01-11T01:54:44.941Z,3.20
2023-01-11T01:57:20.202Z,3.00
2023-01-11T01:59:51.928Z,3.17
2023-01-11T02:02:21.445Z,3.15
2023-01-11T02:04:49.275Z,3.50
2023-01-11T02:07:23.680Z,2.20
2023-01-11T02:10:15.678Z,2.70
2023-01-11T02:13:09.055Z,2.90
2023-01-11T02:15:36.911Z,2.47
2023-01-11T02:18:05.206Z,2.50
2023-01-11T02:20:49.274Z,2.50
2023-01-11T02:23:18.762Z,2.15
2023-01-11T02:25:57.635Z,2.60
2023-01-11T02:28:37.708Z,2.15
2023-01-11T02:31:22.651Z,2.55
2023-01-11T02:34:05.520Z,2.60
2023-01-11T02:36:48.326Z,2.17
2023-01-11T02:39:40.726Z,2.70
2023-01-11T02:42:44.424Z,2.30
2023-01-11T02:45:37.780Z,2.00
2023-01-11T02:48:16.813Z,2.20
2023-01-11T02:50:58.970Z,2.20
2023-01-11T02:53:41.167Z,2.22
2023-01-11T02:56:12.133Z,1.83
2023-01-11T02:58:42.168Z,2.65
2023-01-11T03:01:09.754Z,2.73
2023-01-11T03:03:36.549Z,2.15
2023-01-11T03:06:13.244Z,2.30
2023-01-11T03:09:14.080Z,2.10
2023-01-11T03:12:12.889Z,2.63
2023-01-11T03:15:03.068Z,2.60
2023-01-11T03:17:41.859Z,2.00
2023-01-11T03:20:11.433Z,2.00
2023-01-11T03:23:10.469Z,2.17
2023-01-11T03:25:46.446Z,2.45
2023-01-11T03:28:13.244Z,2.60
2023-01-11T03:30:45.976Z,2.60
2023-01-11T03:33:37.738Z,2.80
2023-01-11T03:36:31.231Z,2.30
2023-01-11T03:39:06.489Z,2.08
2023-01-11T03:41:36.371Z,1.63
2023-01-11T03:44:08.259Z,2.40
2023-01-11T03:46:39.277Z,1.80
2023-01-11T03:49:13.088Z,2.20
2023-01-11T03:51:44.234Z,1.73
2023-01-11T03:54:17.114Z,1.50
2023-01-11T03:57:00.562Z,1.75
2023-01-11T03:59:28.215Z,2.08
2023-01-11T04:01:56.194Z,1.95
2023-01-11T04:04:23.538Z,2.10
2023-01-11T04:06:50.294Z,1.20
2023-01-11T04:09:17.038Z,1.48
2023-01-11T04:11:43.758Z,0.90
2023-01-11T04:14:10.693Z,2.22
2023-01-11T04:16:37.541Z,1.27
2023-01-11T04:19:04.349Z,1.03
2023-01-11T04:21:31.054Z,0.80
2023-01-11T04:23:57.741Z,0.95
2023-01-11T04:26:24.524Z,1.08
2023-01-11T04:28:53.416Z,1.70
2023-01-11T04:31:21.390Z,1.20
2023-01-11T04:33:48.223Z,1.23
2023-01-11T04:36:15.197Z,1.02
2023-01-11T04:38:42.404Z,1.23
2023-01-11T04:41:28.037Z,1.20
2023-01-11T04:43:56.284Z,1.30
2023-01-11T04:46:26.255Z,1.20
2023-01-11T04:48:53.251Z,1.17
2023-01-11T04:51:20.010Z,1.50
2023-01-11T04:53:49.668Z,1.45
2023-01-11T04:56:16.757Z,1.40
2023-01-11T04:58:44.177Z,1.23
2023-01-11T05:01:19.375Z,1.15
2023-01-11T05:03:46.755Z,1.10
2023-01-11T05:06:14.539Z,1.20
2023-01-11T05:08:47.923Z,1.30
2023-01-11T05:11:15.351Z,1.60
2023-01-11T05:13:42.212Z,1.35
2023-01-11T05:16:20.045Z,1.40
2023-01-11T05:18:52.459Z,1.40
2023-01-11T05:21:22.058Z,1.00
2023-01-11T05:23:49.560Z,1.33
2023-01-11T05:26:19.372Z,1.20
2023-01-11T05:28:47.002Z,1.30
2023-01-11T05:31:13.788Z,0.77
2023-01-11T05:33:40.552Z,0.97
2023-01-11T05:36:11.689Z,1.15
2023-01-11T05:38:38.589Z,1.20
2023-01-11T05:41:08.955Z,0.82
2023-01-11T05:43:59.687Z,1.00
2023-01-11T05:46:27.016Z,1.03
2023-01-11T05:48:55.561Z,1.10
2023-01-11T05:51:22.825Z,1.60
2023-01-11T05:53:49.689Z,1.58
2023-01-11T05:56:16.669Z,1.10
2023-01-11T05:58:43.396Z,1.20
2023-01-11T06:01:12.452Z,1.40
2023-01-11T06:03:39.230Z,0.95
2023-01-11T06:06:06.445Z,0.88
2023-01-11T06:08:36.330Z,1.65
2023-01-11T06:11:03.361Z,1.00
2023-01-11T06:13:30.195Z,0.90
2023-01-11T06:16:11.787Z,1.00
2023-01-11T06:18:40.738Z,1.17
2023-01-11T06:21:08.573Z,0.90
2023-01-11T06:23:37.333Z,1.27
2023-01-11T06:26:07.300Z,1.17
2023-01-11T06:28:34.038Z,1.00
2023-01-11T06:31:01.210Z,1.00
2023-01-11T06:33:29.311Z,1.35
2023-01-11T06:35:57.171Z,1.40
2023-01-11T06:38:25.704Z,1.10
2023-01-11T06:40:58.211Z,1.20
2023-01-11T06:43:25.583Z,1.20
2023-01-11T06:45:52.970Z,1.00
2023-01-11T06:48:21.520Z,1.10
2023-01-11T06:50:49.862Z,1.10
2023-01-11T06:53:16.756Z,0.95
2023-01-11T06:55:43.996Z,0.75
2023-01-11T06:58:11.248Z,0.98
2023-01-11T07:00:38.691Z,0.70
2023-01-11T07:03:24.205Z,0.95
2023-01-11T07:06:05.548Z,1.60
2023-01-11T07:08:51.513Z,0.82
2023-01-11T07:11:22.973Z,1.17
2023-01-11T07:14:02.969Z,0.70
2023-01-11T07:16:29.900Z,0.95
2023-01-11T07:18:56.672Z,1.52
2023-01-11T07:21:23.346Z,0.68
2023-01-11T07:23:51.947Z,1.38
2023-01-11T07:26:18.791Z,1.03
2023-01-11T07:28:45.560Z,1.20
2023-01-11T07:31:12.392Z,1.00
2023-01-11T07:33:39.135Z,1.30
2023-01-11T07:36:06.402Z,1.50
2023-01-11T07:38:33.192Z,1.20
2023-01-11T07:40:59.950Z,1.40
2023-01-11T07:43:26.997Z,1.23
2023-01-11T07:45:54.081Z,1.70
2023-01-11T07:48:26.150Z,1.38
2023-01-11T07:50:53.886Z,1.57
2023-01-11T07:53:20.914Z,1.20
2023-01-11T07:55:47.717Z,1.20
2023-01-11T07:58:15.253Z,1.10
2023-01-11T08:00:42.275Z,1.00
2023-01-11T08:03:09.908Z,1.53
2023-01-11T08:05:37.041Z,1.10
2023-01-11T08:08:04.521Z,1.75
2023-01-11T08:10:31.570Z,1.40
2023-01-11T08:13:16.937Z,1.17
2023-01-11T08:15:44.083Z,0.80
2023-01-11T08:18:11.933Z,1.00
2023-01-11T08:20:40.336Z,1.40
2023-01-11T08:23:09.577Z,2.08
2023-01-11T08:25:37.105Z,1.65
2023-01-11T08:28:06.630Z,1.37
2023-01-11T08:30:33.479Z,1.60
2023-01-11T08:33:05.725Z,1.27
2023-01-11T08:35:37.052Z,1.27
2023-01-11T08:38:03.847Z,1.45
2023-01-11T08:40:30.675Z,1.30
2023-01-11T08:42:57.838Z,1.13
2023-01-11T08:45:25.503Z,1.88
2023-01-11T08:47:52.628Z,1.52
2023-01-11T08:50:22.057Z,1.20
2023-01-11T08:52:50.914Z,1.60
2023-01-11T08:55:18.231Z,1.63
2023-01-11T08:57:46.079Z,1.42
2023-01-11T09:00:13.768Z,1.20
2023-01-11T09:02:40.694Z,1.50
2023-01-11T09:05:07.821Z,1.70
2023-01-11T09:07:34.618Z,1.20
2023-01-11T09:10:01.464Z,1.20
2023-01-11T09:12:28.295Z,1.50
2023-01-11T09:14:55.038Z,1.58
2023-01-11T09:17:21.823Z,1.50
2023-01-11T09:19:48.562Z,1.70
2023-01-11T09:22:15.305Z,1.52
2023-01-11T09:24:49.118Z,1.65
2023-01-11T09:27:16.429Z,1.30
2023-01-11T09:29:43.230Z,1.07
2023-01-11T09:32:10.043Z,1.50
2023-01-11T09:34:36.906Z,1.52
2023-01-11T09:37:06.722Z,1.38
2023-01-11T09:39:35.031Z,1.60
2023-01-11T09:42:27.026Z,1.53
2023-01-11T09:44:58.069Z,1.55
2023-01-11T09:47:40.989Z,1.27
2023-01-11T09:50:28.294Z,1.45
2023-01-11T09:53:08.222Z,1.40
2023-01-11T09:55:42.211Z,1.03
2023-01-11T09:58:28.294Z,1.55
2023-01-11T10:01:01.518Z,1.30
2023-01-11T10:03:48.921Z,1.13
2023-01-11T10:06:23.199Z,1.85
2023-01-11T10:18:28.980Z,1.25
2023-01-11T10:19:24.598Z,1.30
2023-01-11T10:21:50.599Z,1.50
2023-01-11T10:24:21.521Z,1.10
2023-01-11T10:26:50.983Z,1.50
2023-01-11T10:29:49.751Z,1.30
2023-01-11T10:32:54.093Z,1.30
2023-01-11T10:36:04.908Z,1.52
2023-01-11T10:38:54.606Z,1.17
2023-01-11T10:41:34.140Z,1.40
2023-01-11T10:44:36.977Z,1.35
2023-01-11T10:47:05.170Z,1.30
2023-01-11T10:49:56.055Z,1.15
2023-01-11T10:52:32.599Z,1.50
2023-01-11T10:55:02.855Z,1.35
2023-01-11T10:58:00.097Z,1.35
2023-01-11T11:00:38.026Z,1.40
2023-01-11T11:03:13.728Z,1.55
2023-01-11T11:06:13.696Z,1.00
2023-01-11T11:08:52.815Z,1.10
2023-01-11T11:11:44.917Z,1.10
2023-01-11T11:14:32.298Z,1.27
2023-01-11T11:17:25.899Z,1.17
2023-01-11T11:19:53.322Z,1.10
2023-01-11T11:22:21.303Z,1.20
2023-01-11T11:25:12.725Z,1.45
2023-01-11T11:27:52.016Z,1.75
2023-01-11T11:30:37.936Z,0.90
2023-01-11T11:33:24.023Z,1.30
2023-01-11T11:36:02.223Z,1.15
2023-01-11T11:38:34.676Z,1.48
2023-01-11T11:41:05.692Z,1.20
2023-01-11T11:43:34.992Z,1.38
2023-01-11T11:46:21.676Z,1.40
2023-01-11T11:49:12.578Z,0.85
2023-01-11T11:51:40.992Z,1.15
2023-01-11T11:54:27.317Z,0.80
2023-01-11T11:56:57.810Z,1.70
2023-01-11T11:59:28.310Z,1.27
2023-01-11T12:02:02.104Z,1.08
2023-01-11T12:04:48.698Z,1.10
2023-01-11T12:07:17.573Z,1.10
2023-01-11T12:09:48.570Z,0.98
2023-01-11T12:12:19.040Z,1.40
2023-01-11T12:15:09.079Z,1.20
2023-01-11T12:17:36.397Z,1.00
2023-01-11T12:20:23.384Z,1.60
2023-01-11T12:23:07.908Z,1.33
2023-01-11T12:25:42.963Z,1.60
2023-01-11T12:28:36.021Z,0.98
2023-01-11T12:31:33.205Z,1.40
2023-01-11T12:34:18.696Z,1.58
2023-01-11T12:37:05.845Z,1.25
2023-01-11T12:39:57.212Z,1.20
2023-01-11T12:42:44.139Z,1.17
2023-01-11T12:45:19.825Z,1.17
2023-01-11T12:48:14.848Z,0.98
2023-01-11T12:51:01.805Z,1.00
2023-01-11T12:53:28.499Z,0.90
2023-01-11T12:56:12.857Z,1.40
2023-01-11T12:58:53.480Z,1.35
2023-01-11T13:01:39.299Z,1.02
2023-01-11T13:04:33.989Z,1.73
2023-01-11T13:07:25.834Z,0.90
2023-01-11T13:10:04.718Z,1.50
2023-01-11T13:12:45.810Z,1.52
2023-01-11T13:15:12.602Z,1.45
2023-01-11T13:17:53.593Z,1.33
2023-01-11T13:20:26.636Z,1.30
2023-01-11T13:23:44.135Z,1.55
2023-01-11T13:26:14.011Z,1.00
2023-01-11T13:28:44.305Z,1.40
2023-01-11T13:31:13.677Z,1.02
2023-01-11T13:33:47.671Z,1.50
2023-01-11T13:36:23.143Z,1.55
2023-01-11T13:39:12.700Z,1.23
2023-01-11T13:41:49.790Z,1.25
2023-01-11T13:44:24.980Z,1.00
2023-01-11T13:47:22.251Z,1.70
2023-01-11T13:49:56.657Z,1.20
2023-01-11T13:52:57.330Z,1.00
2023-01-11T13:55:28.287Z,1.20
2023-01-11T13:58:10.208Z,1.05
2023-01-11T14:00:51.719Z,1.30
2023-01-11T14:03:31.628Z,1.10
2023-01-11T14:06:23.755Z,1.00
2023-01-11T14:08:53.255Z,1.13
2023-01-11T14:11:38.977Z,1.20
2023-01-11T14:14:23.824Z,1.40
2023-01-11T14:17:21.041Z,1.05
2023-01-11T14:20:43.830Z,1.00
2023-01-11T14:23:20.134Z,1.65
2023-01-11T14:25:54.775Z,1.02
2023-01-11T14:28:52.612Z,1.20
2023-01-11T14:31:56.760Z,1.67
2023-01-11T14:35:02.774Z,1.23
2023-01-11T14:38:01.735Z,1.17
2023-01-11T14:40:43.122Z,1.15
2023-01-11T14:43:25.911Z,1.03
2023-01-11T14:46:22.142Z,1.45
2023-01-11T14:49:12.857Z,1.05
2023-01-11T14:51:59.204Z,1.17
2023-01-11T14:54:34.288Z,1.55
2023-01-11T14:57:01.143Z,1.53
2023-01-11T14:59:30.596Z,1.33
2023-01-11T15:02:03.580Z,1.05
2023-01-11T15:04:57.903Z,1.60
2023-01-11T15:07:30.943Z,1.33
2023-01-11T15:09:59.376Z,1.23
2023-01-11T15:12:34.410Z,1.02
2023-01-11T15:15:05.800Z,0.93
2023-01-11T15:17:52.173Z,0.85
2023-01-11T15:20:21.970Z,1.52
2023-01-11T15:23:05.728Z,1.43
2023-01-11T15:25:34.653Z,1.73
2023-01-11T15:28:18.625Z,1.45
2023-01-11T15:30:52.123Z,1.05
2023-01-11T15:33:25.293Z,1.52
2023-01-11T15:35:58.159Z,2.43
2023-01-11T15:38:57.527Z,1.25
2023-01-11T15:42:06.164Z,1.17
2023-01-11T15:45:01.414Z,1.05
2023-01-11T15:47:39.522Z,1.00
2023-01-11T15:50:58.449Z,1.13
2023-01-11T15:53:43.196Z,1.02
2023-01-11T15:56:31.019Z,1.38
2023-01-11T15:59:24.878Z,1.15
2023-01-11T16:02:13.517Z,1.38
2023-01-11T16:04:44.707Z,1.40
2023-01-11T16:07:27.708Z,1.85
2023-01-11T16:10:10.206Z,1.02
2023-01-11T16:12:58.006Z,1.23
2023-01-11T16:15:44.129Z,1.00
2023-01-11T16:18:20.050Z,1.37
2023-01-11T16:21:18.054Z,1.67
2023-01-11T16:23:46.133Z,1.35
2023-01-11T16:26:18.257Z,1.05
2023-01-11T16:28:54.623Z,1.00
2023-01-11T16:31:21.477Z,0.90
2023-01-11T16:33:49.795Z,1.17
2023-01-11T16:36:21.105Z,0.70
2023-01-11T16:39:11.015Z,1.05
2023-01-11T16:41:56.115Z,1.05
2023-01-11T16:45:21.360Z,1.20
2023-01-11T16:48:24.171Z,1.13
2023-01-11T16:51:08.483Z,1.40
2023-01-11T16:53:41.179Z,1.38
2023-01-11T16:56:22.245Z,1.23
2023-01-11T16:59:07.583Z,0.93
2023-01-11T17:01:55.385Z,1.50
2023-01-11T17:04:26.222Z,1.85
2023-01-11T17:06:52.936Z,2.30
2023-01-11T17:09:21.313Z,1.85
2023-01-11T17:11:50.360Z,2.67
2023-01-11T17:14:23.227Z,2.13
2023-01-11T17:16:53.765Z,2.72
2023-01-11T17:19:24.890Z,1.70
2023-01-11T17:21:54.190Z,1.40
2023-01-11T17:24:25.822Z,1.23
2023-01-11T17:26:59.547Z,1.55
2023-01-11T17:29:31.716Z,1.30
2023-01-11T17:32:00.978Z,1.55
2023-01-11T17:34:36.560Z,1.40
2023-01-11T17:37:10.775Z,2.10
2023-01-11T17:39:42.999Z,1.40
2023-01-11T17:42:31.672Z,1.20
2023-01-11T17:45:15.854Z,2.55
2023-01-11T17:47:48.259Z,1.55
2023-01-11T17:50:35.638Z,2.23
2023-01-11T17:53:12.570Z,2.00
2023-01-11T17:55:59.543Z,1.92
2023-01-11T17:58:34.350Z,1.70
2023-01-11T18:01:13.967Z,1.15
2023-01-11T18:03:40.713Z,1.80
2023-01-11T18:06:18.845Z,1.60
2023-01-11T18:08:48.384Z,1.58
2023-01-11T18:11:26.807Z,1.35
2023-01-11T18:13:55.885Z,1.88
2023-01-11T18:16:23.930Z,1.93
2023-01-11T18:18:52.837Z,1.70
2023-01-11T18:21:25.781Z,1.05
2023-01-11T18:24:12.917Z,1.40
2023-01-11T18:26:47.992Z,1.13
2023-01-11T18:29:37.902Z,1.80
2023-01-11T18:32:11.128Z,1.00
2023-01-11T18:34:38.035Z,1.60
2023-01-11T18:37:06.511Z,2.30
2023-01-11T18:39:36.684Z,2.03
2023-01-11T18:42:08.258Z,2.67
2023-01-11T18:44:36.315Z,2.28
2023-01-11T18:47:20.546Z,1.90
2023-01-11T18:49:47.691Z,1.88
2023-01-11T18:52:14.854Z,1.90
2023-01-11T18:54:42.893Z,1.70
2023-01-11T18:57:10.179Z,2.17
2023-01-11T18:59:37.649Z,1.33
2023-01-11T19:02:21.913Z,1.40
2023-01-11T19:04:49.282Z,1.20
2023-01-11T19:07:16.598Z,1.70
2023-01-11T19:09:45.042Z,1.38
2023-01-11T19:12:12.454Z,1.52
2023-01-11T19:14:40.232Z,1.20
2023-01-11T19:17:08.864Z,1.73
2023-01-11T19:19:36.165Z,1.60
2023-01-11T19:22:04.469Z,1.75
2023-01-11T19:24:31.680Z,2.00
2023-01-11T19:26:58.634Z,1.75
2023-01-11T19:29:25.762Z,1.80
2023-01-11T19:31:53.136Z,1.07
2023-01-11T19:34:20.345Z,1.48
2023-01-11T19:36:48.237Z,1.10
2023-01-11T19:39:15.192Z,1.05
2023-01-11T19:42:02.643Z,1.42
2023-01-11T19:44:33.989Z,1.17
2023-01-11T19:47:11.261Z,1.52
2023-01-11T19:49:40.292Z,1.17
2023-01-11T19:52:13.448Z,1.17
2023-01-11T19:54:42.306Z,1.23
2023-01-11T19:57:11.404Z,1.30
2023-01-11T19:59:38.249Z,1.27
2023-01-11T20:02:05.533Z,2.10
2023-01-11T20:04:32.519Z,1.83
2023-01-11T20:06:59.340Z,1.30
2023-01-11T20:09:26.250Z,1.97
2023-01-11T20:11:54.594Z,1.80
2023-01-11T20:14:21.606Z,1.67
2023-01-11T20:16:48.419Z,1.48
2023-01-11T20:19:15.802Z,2.25
2023-01-11T20:22:05.008Z,1.40
2023-01-11T20:24:31.725Z,1.98
2023-01-11T20:27:01.348Z,1.52
2023-01-11T20:29:28.670Z,1.60
2023-01-11T20:32:27.860Z,1.30
2023-01-11T20:34:53.532Z,1.90
2023-01-11T20:37:20.737Z,1.60
2023-01-11T20:39:47.514Z,2.20
2023-01-11T20:42:14.291Z,3.58
2023-01-11T20:44:41.073Z,2.20
2023-01-11T20:47:07.880Z,1.90
2023-01-11T20:49:34.684Z,1.85
2023-01-11T20:52:01.497Z,1.70
2023-01-11T20:54:28.454Z,2.00
2023-01-11T20:56:58.129Z,1.45
2023-01-11T20:59:26.121Z,1.40
2023-01-11T21:01:52.859Z,1.52
2023-01-11T21:04:19.679Z,1.50
2023-01-11T21:06:48.333Z,1.65
2023-01-11T21:09:18.005Z,1.60
2023-01-11T21:11:53.021Z,1.73
2023-01-11T21:14:21.085Z,1.65
2023-01-11T21:16:48.060Z,2.10
2023-01-11T21:19:15.924Z,1.77
2023-01-11T21:21:42.717Z,2.70
2023-01-11T21:24:12.695Z,2.03
2023-01-11T21:26:39.505Z,2.28
2023-01-11T21:29:06.542Z,2.10
2023-01-11T21:31:35.957Z,1.95
2023-01-11T21:34:03.969Z,1.58
2023-01-11T21:36:31.719Z,1.10
2023-01-11T21:38:59.535Z,1.30
2023-01-11T21:41:46.758Z,1.80
2023-01-11T21:44:14.279Z,1.17
2023-01-11T21:46:41.761Z,1.30
2023-01-11T21:49:09.535Z,1.10
2023-01-11T21:51:36.942Z,1.30
2023-01-11T21:54:09.850Z,1.33
2023-01-11T21:56:37.179Z,1.60
2023-01-11T21:59:04.399Z,1.80
2023-01-11T22:01:31.484Z,1.80
2023-01-11T22:03:58.569Z,1.20
2023-01-11T22:06:25.583Z,1.35
2023-01-11T22:08:52.533Z,1.38
2023-01-11T22:11:19.456Z,1.63
2023-01-11T22:13:46.231Z,1.70
2023-01-11T22:16:17.868Z,1.13
2023-01-11T22:18:45.663Z,1.35
2023-01-11T22:21:14.784Z,1.10
2023-01-11T22:23:42.075Z,1.35
2023-01-11T22:26:11.940Z,1.00
2023-01-11T22:28:57.186Z,1.33
2023-01-11T22:31:25.330Z,1.00
2023-01-11T22:33:52.130Z,1.00
2023-01-11T22:36:21.282Z,0.90
2023-01-11T22:38:48.097Z,0.83
2023-01-11T22:41:15.609Z,1.20
2023-01-11T22:43:45.616Z,0.90
2023-01-11T22:46:15.506Z,1.13
2023-01-11T22:48:42.401Z,0.93
2023-01-11T22:51:11.089Z,0.80
2023-01-11T22:53:42.639Z,1.52
2023-01-11T22:56:11.252Z,1.15
2023-01-11T22:58:38.071Z,1.45
2023-01-11T23:01:22.784Z,1.35
2023-01-11T23:03:50.782Z,1.50
2023-01-11T23:06:20.539Z,1.48
2023-01-11T23:08:47.279Z,1.17
2023-01-11T23:11:34.916Z,1.60
2023-01-11T23:14:06.413Z,1.58
2023-01-11T23:16:33.667Z,1.57
2023-01-11T23:19:00.557Z,1.23
2023-01-11T23:21:27.770Z,0.93
2023-01-11T23:23:54.805Z,1.10
2023-01-11T23:26:21.899Z,1.45
2023-01-11T23:28:49.818Z,1.80
2023-01-11T23:31:19.546Z,1.75
2023-01-11T23:34:07.022Z,1.38
2023-01-11T23:36:36.736Z,1.38
2023-01-11T23:39:05.135Z,1.20
2023-01-11T23:41:50.320Z,1.57
2023-01-11T23:44:17.979Z,1.50
2023-01-11T23:47:04.106Z,1.40
2023-01-11T23:49:32.123Z,1.60
2023-01-11T23:51:59.753Z,1.52
2023-01-11T23:54:34.935Z,1.40
2023-01-11T23:57:02.979Z,1.58
2023-01-11T23:59:29.940Z,1.55
